Pagina principale
Immagini satellite Previsioni 10 giorniClimaMeteomar Cicloni Fulmine AeroportiFAQ Bollettino Informazioni
Tempo : Europa Africa America settentrionale America meridionale Asia Australia-Oceania Altri
Lingue Contatto

Genova, Italia

Aeroporto di Genova-Sestri

latitudine: 44-25N, longitudine: 008-51E, altezza: 2 m


METAR: LIMJ 021820Z 14007KT 9999 SCT027 24/17 Q1011
TAF: LIMJ 021700Z 0218/0318 14010KT 9999 BKN025 TEMPO 0309/0318 TSRA

Ora: 20:53 (18:53 UTC)

Osservazione

Il bollettino è stato emesso 33 minuti fa, alle 18:20 UTC
Vento 7 kt da sud-est
Temperature 24°C
Umidità 65%
Pressione 1011 hPa
Visibilità 10 km o più
Nubi sparse ad un'altezza di 2700 ft

Cambiare le unità

Previsione

Il bollettino è stato emesso 1 ora e 53 minuti fa, alle 17:00 UTC
Previsione valida dal 02 alle 18 UTC al 03 alle 18 UTC
Vento 10 kt da sud-est
Visibilità 10 km o più
Nuvoloso ad un'altezza di 2500 ft
Temporaneamente
dal 03 alle 09 UTC al 03 alle 18 UTC
temporale, pioggia
Le informazioni contenute in questo sito formano oggetto di una clausola di esclusione di responsabilità
Tempo : Europa Africa America settentrionale America meridionale Asia Australia-Oceania Altri
Immagini satellite Previsioni 10 giorniClimaMeteomar Cicloni Fulmine AeroportiFAQ Lingue Contatto Bollettino Informazioni